createdAt,value
2018-07-08T19:58:16.270Z,21.50
2018-07-08T20:00:46.338Z,19.40
2018-07-08T20:03:15.385Z,19.10
2018-07-08T20:05:45.318Z,18.90
2018-07-08T20:08:14.020Z,18.70
2018-07-08T20:10:43.174Z,19.00
2018-07-08T20:13:15.056Z,19.20
2018-07-08T20:15:45.201Z,18.90
2018-07-08T20:18:15.720Z,18.90
2018-07-08T20:20:44.692Z,18.80
2018-07-08T20:23:14.099Z,18.60
2018-07-08T20:25:42.840Z,18.70
2018-07-08T20:28:12.374Z,18.60
2018-07-08T20:30:41.841Z,18.60
2018-07-08T20:33:10.932Z,18.60
2018-07-08T20:38:08.636Z,18.70
2018-07-08T20:40:38.088Z,18.60
2018-07-08T20:43:07.124Z,18.40
2018-07-08T20:45:36.283Z,18.20
2018-07-08T20:48:05.466Z,18.00
2018-07-08T20:50:34.068Z,17.90
2018-07-08T20:53:04.193Z,17.80
2018-07-08T20:55:34.809Z,17.80
2018-07-08T20:58:03.910Z,17.70
2018-07-08T21:00:33.616Z,17.70
2018-07-08T21:03:03.638Z,17.60
2018-07-08T21:05:32.735Z,17.90
2018-07-08T21:10:31.299Z,17.70
2018-07-08T21:13:00.296Z,17.60
2018-07-08T21:15:29.035Z,17.50
2018-07-08T21:17:58.376Z,17.40
2018-07-08T21:20:27.577Z,17.50
2018-07-08T21:22:56.328Z,17.40
2018-07-08T21:25:25.750Z,17.50
2018-07-08T21:27:54.580Z,17.60
2018-07-08T21:30:23.342Z,17.50
2018-07-08T21:32:52.302Z,17.40
2018-07-08T21:35:21.585Z,17.40
2018-07-08T21:37:50.423Z,17.30
2018-07-08T21:40:20.145Z,17.50
2018-07-08T21:42:49.610Z,17.40
2018-07-08T21:45:18.866Z,17.40
2018-07-08T21:47:47.587Z,17.50
2018-07-08T21:50:16.588Z,17.40
2018-07-08T21:52:45.553Z,17.20
2018-07-08T21:55:14.692Z,17.10
2018-07-08T21:57:43.703Z,16.90
2018-07-08T22:00:12.819Z,16.80
2018-07-08T22:02:42.131Z,16.80
2018-07-08T22:05:11.373Z,16.70
2018-07-08T22:07:45.333Z,16.80
